sensor_id;sensor_type;location;lat;lon;timestamp;temperature;humidity
53800;DHT22;39708;53.210;6.948;2023-03-15T00:01:54;1.70;99.90
53800;DHT22;39708;53.210;6.948;2023-03-15T00:04:19;1.70;99.90
53800;DHT22;39708;53.210;6.948;2023-03-15T00:06:45;1.70;99.90
53800;DHT22;39708;53.210;6.948;2023-03-15T00:09:11;1.80;99.90
53800;DHT22;39708;53.210;6.948;2023-03-15T00:11:37;3.00;99.90
53800;DHT22;39708;53.210;6.948;2023-03-15T00:14:02;1.80;99.90
53800;DHT22;39708;53.210;6.948;2023-03-15T00:16:28;2.20;99.90
53800;DHT22;39708;53.210;6.948;2023-03-15T00:18:53;1.70;99.90
53800;DHT22;39708;53.210;6.948;2023-03-15T00:21:19;1.80;99.90
53800;DHT22;39708;53.210;6.948;2023-03-15T00:23:45;1.70;99.90
53800;DHT22;39708;53.210;6.948;2023-03-15T00:26:11;1.60;99.90
53800;DHT22;39708;53.210;6.948;2023-03-15T00:28:37;1.60;99.90
53800;DHT22;39708;53.210;6.948;2023-03-15T00:31:07;1.50;99.90
53800;DHT22;39708;53.210;6.948;2023-03-15T00:33:33;1.50;99.90
53800;DHT22;39708;53.210;6.948;2023-03-15T00:36:01;1.40;99.90
53800;DHT22;39708;53.210;6.948;2023-03-15T00:38:28;1.40;99.90
53800;DHT22;39708;53.210;6.948;2023-03-15T00:40:53;1.40;99.90
53800;DHT22;39708;53.210;6.948;2023-03-15T00:43:19;1.40;99.90
53800;DHT22;39708;53.210;6.948;2023-03-15T00:45:44;1.40;99.90
53800;DHT22;39708;53.210;6.948;2023-03-15T00:48:10;2.00;99.90
53800;DHT22;39708;53.210;6.948;2023-03-15T00:50:35;1.30;99.90
53800;DHT22;39708;53.210;6.948;2023-03-15T00:53:01;1.20;99.90
53800;DHT22;39708;53.210;6.948;2023-03-15T00:55:26;1.20;99.90
53800;DHT22;39708;53.210;6.948;2023-03-15T00:57:52;1.20;99.90
53800;DHT22;39708;53.210;6.948;2023-03-15T01:00:21;1.10;99.90
53800;DHT22;39708;53.210;6.948;2023-03-15T01:02:54;1.10;99.90
53800;DHT22;39708;53.210;6.948;2023-03-15T01:05:19;1.00;99.90
53800;DHT22;39708;53.210;6.948;2023-03-15T01:07:45;1.00;99.90
53800;DHT22;39708;53.210;6.948;2023-03-15T01:10:12;1.00;99.90
53800;DHT22;39708;53.210;6.948;2023-03-15T01:12:37;1.00;99.90
53800;DHT22;39708;53.210;6.948;2023-03-15T01:15:03;2.40;99.90
53800;DHT22;39708;53.210;6.948;2023-03-15T01:17:30;1.10;99.90
53800;DHT22;39708;53.210;6.948;2023-03-15T01:19:55;1.10;99.90
53800;DHT22;39708;53.210;6.948;2023-03-15T01:22:21;1.10;99.90
53800;DHT22;39708;53.210;6.948;2023-03-15T01:24:47;1.10;99.90
53800;DHT22;39708;53.210;6.948;2023-03-15T01:27:12;1.80;99.90
53800;DHT22;39708;53.210;6.948;2023-03-15T01:29:38;1.10;99.90
53800;DHT22;39708;53.210;6.948;2023-03-15T01:32:04;1.00;99.90
53800;DHT22;39708;53.210;6.948;2023-03-15T01:34:30;0.90;99.90
53800;DHT22;39708;53.210;6.948;2023-03-15T01:36:55;0.90;99.90
53800;DHT22;39708;53.210;6.948;2023-03-15T01:39:21;0.80;99.90
53800;DHT22;39708;53.210;6.948;2023-03-15T01:41:46;0.80;99.90
53800;DHT22;39708;53.210;6.948;2023-03-15T01:44:16;0.80;99.90
53800;DHT22;39708;53.210;6.948;2023-03-15T01:46:42;0.80;99.90
53800;DHT22;39708;53.210;6.948;2023-03-15T01:49:12;0.70;99.90
53800;DHT22;39708;53.210;6.948;2023-03-15T01:51:40;0.70;99.90
53800;DHT22;39708;53.210;6.948;2023-03-15T01:56:45;0.60;99.90
53800;DHT22;39708;53.210;6.948;2023-03-15T01:59:14;0.50;99.90
53800;DHT22;39708;53.210;6.948;2023-03-15T02:01:41;0.30;99.90
53800;DHT22;39708;53.210;6.948;2023-03-15T02:04:11;0.20;99.90
53800;DHT22;39708;53.210;6.948;2023-03-15T02:06:37;-0.20;99.90
53800;DHT22;39708;53.210;6.948;2023-03-15T02:09:08;1.00;99.90
53800;DHT22;39708;53.210;6.948;2023-03-15T02:11:34;-0.70;99.90
53800;DHT22;39708;53.210;6.948;2023-03-15T02:14:01;-0.80;99.90
53800;DHT22;39708;53.210;6.948;2023-03-15T02:16:27;-0.80;99.90
53800;DHT22;39708;53.210;6.948;2023-03-15T02:18:52;-0.90;99.90
53800;DHT22;39708;53.210;6.948;2023-03-15T02:23:47;-0.40;99.90
53800;DHT22;39708;53.210;6.948;2023-03-15T02:26:27;0.80;99.90
53800;DHT22;39708;53.210;6.948;2023-03-15T02:28:54;-0.50;99.90
53800;DHT22;39708;53.210;6.948;2023-03-15T02:31:20;-0.10;99.90
53800;DHT22;39708;53.210;6.948;2023-03-15T02:33:49;1.00;99.90
53800;DHT22;39708;53.210;6.948;2023-03-15T02:38:43;0.80;99.90
53800;DHT22;39708;53.210;6.948;2023-03-15T02:41:09;0.30;99.90
53800;DHT22;39708;53.210;6.948;2023-03-15T02:43:35;-0.10;99.90
53800;DHT22;39708;53.210;6.948;2023-03-15T02:46:01;-0.30;99.90
53800;DHT22;39708;53.210;6.948;2023-03-15T02:48:27;-0.60;99.90
53800;DHT22;39708;53.210;6.948;2023-03-15T02:50:53;-0.90;99.90
53800;DHT22;39708;53.210;6.948;2023-03-15T02:53:19;-1.00;99.90
53800;DHT22;39708;53.210;6.948;2023-03-15T02:55:44;-1.10;99.90
53800;DHT22;39708;53.210;6.948;2023-03-15T02:58:10;-0.20;99.90
53800;DHT22;39708;53.210;6.948;2023-03-15T03:00:35;-0.90;99.90
53800;DHT22;39708;53.210;6.948;2023-03-15T03:03:01;-0.80;99.90
53800;DHT22;39708;53.210;6.948;2023-03-15T03:05:26;-0.80;99.90
53800;DHT22;39708;53.210;6.948;2023-03-15T03:07:52;-0.80;99.90
53800;DHT22;39708;53.210;6.948;2023-03-15T03:10:18;-0.30;99.90
53800;DHT22;39708;53.210;6.948;2023-03-15T03:12:43;-1.10;99.90
53800;DHT22;39708;53.210;6.948;2023-03-15T03:15:09;-1.10;99.90
53800;DHT22;39708;53.210;6.948;2023-03-15T03:17:35;-1.20;99.90
53800;DHT22;39708;53.210;6.948;2023-03-15T03:20:10;-1.30;99.90
53800;DHT22;39708;53.210;6.948;2023-03-15T03:22:38;-1.30;99.90
53800;DHT22;39708;53.210;6.948;2023-03-15T03:25:04;-1.40;99.90
53800;DHT22;39708;53.210;6.948;2023-03-15T03:27:30;-1.30;99.90
53800;DHT22;39708;53.210;6.948;2023-03-15T03:29:57;-1.00;99.90
53800;DHT22;39708;53.210;6.948;2023-03-15T03:32:23;-1.30;99.90
53800;DHT22;39708;53.210;6.948;2023-03-15T03:34:48;-1.20;99.90
53800;DHT22;39708;53.210;6.948;2023-03-15T03:37:18;-1.00;99.90
53800;DHT22;39708;53.210;6.948;2023-03-15T03:39:43;-0.80;99.90
53800;DHT22;39708;53.210;6.948;2023-03-15T03:42:09;0.40;99.90
53800;DHT22;39708;53.210;6.948;2023-03-15T03:44:35;-0.50;99.90
53800;DHT22;39708;53.210;6.948;2023-03-15T03:47:00;-0.30;99.90
53800;DHT22;39708;53.210;6.948;2023-03-15T03:49:26;-1.10;99.90
53800;DHT22;39708;53.210;6.948;2023-03-15T03:51:51;-1.00;99.90
53800;DHT22;39708;53.210;6.948;2023-03-15T03:54:17;-1.20;99.90
53800;DHT22;39708;53.210;6.948;2023-03-15T03:56:46;-2.20;99.90
53800;DHT22;39708;53.210;6.948;2023-03-15T03:59:11;-2.20;99.90
53800;DHT22;39708;53.210;6.948;2023-03-15T04:01:37;-2.20;99.90
53800;DHT22;39708;53.210;6.948;2023-03-15T04:04:02;-2.10;99.90
53800;DHT22;39708;53.210;6.948;2023-03-15T04:06:28;-2.00;99.90
53800;DHT22;39708;53.210;6.948;2023-03-15T04:08:53;-1.90;99.90
53800;DHT22;39708;53.210;6.948;2023-03-15T04:11:19;-1.70;99.90
53800;DHT22;39708;53.210;6.948;2023-03-15T04:13:44;-1.60;99.90
53800;DHT22;39708;53.210;6.948;2023-03-15T04:16:10;-1.40;99.90
53800;DHT22;39708;53.210;6.948;2023-03-15T04:18:36;-1.30;99.90
53800;DHT22;39708;53.210;6.948;2023-03-15T04:21:04;-1.20;99.90
53800;DHT22;39708;53.210;6.948;2023-03-15T04:23:35;-1.10;99.90
53800;DHT22;39708;53.210;6.948;2023-03-15T04:26:01;-0.90;99.90
53800;DHT22;39708;53.210;6.948;2023-03-15T04:28:26;-0.70;99.90
53800;DHT22;39708;53.210;6.948;2023-03-15T04:30:52;-0.70;99.90
53800;DHT22;39708;53.210;6.948;2023-03-15T04:33:23;-0.50;99.90
53800;DHT22;39708;53.210;6.948;2023-03-15T04:35:48;-0.40;99.90
53800;DHT22;39708;53.210;6.948;2023-03-15T04:38:17;0.70;99.90
53800;DHT22;39708;53.210;6.948;2023-03-15T04:40:42;-0.60;99.90
53800;DHT22;39708;53.210;6.948;2023-03-15T04:43:08;-1.00;99.90
53800;DHT22;39708;53.210;6.948;2023-03-15T04:45:33;-1.20;99.90
53800;DHT22;39708;53.210;6.948;2023-03-15T04:47:59;-1.50;99.90
53800;DHT22;39708;53.210;6.948;2023-03-15T04:50:26;-1.80;99.90
53800;DHT22;39708;53.210;6.948;2023-03-15T04:52:51;-1.80;99.90
53800;DHT22;39708;53.210;6.948;2023-03-15T04:55:17;-2.10;99.90
53800;DHT22;39708;53.210;6.948;2023-03-15T04:57:42;-2.20;99.90
53800;DHT22;39708;53.210;6.948;2023-03-15T05:00:08;-2.30;99.90
53800;DHT22;39708;53.210;6.948;2023-03-15T05:02:34;-2.40;99.90
53800;DHT22;39708;53.210;6.948;2023-03-15T05:05:04;-2.40;99.90
53800;DHT22;39708;53.210;6.948;2023-03-15T05:07:31;-2.30;99.90
53800;DHT22;39708;53.210;6.948;2023-03-15T05:09:57;-1.00;99.90
53800;DHT22;39708;53.210;6.948;2023-03-15T05:12:23;-2.40;99.90
53800;DHT22;39708;53.210;6.948;2023-03-15T05:14:48;-2.40;99.90
53800;DHT22;39708;53.210;6.948;2023-03-15T05:17:14;-2.50;99.90
53800;DHT22;39708;53.210;6.948;2023-03-15T05:19:39;-2.40;99.90
53800;DHT22;39708;53.210;6.948;2023-03-15T05:22:06;-2.30;99.90
53800;DHT22;39708;53.210;6.948;2023-03-15T05:24:32;-1.40;99.90
53800;DHT22;39708;53.210;6.948;2023-03-15T05:26:58;-1.80;99.90
53800;DHT22;39708;53.210;6.948;2023-03-15T05:29:23;-0.70;99.90
53800;DHT22;39708;53.210;6.948;2023-03-15T05:31:49;-1.60;99.90
53800;DHT22;39708;53.210;6.948;2023-03-15T05:34:19;-1.40;99.90
53800;DHT22;39708;53.210;6.948;2023-03-15T05:36:51;-2.40;99.90
53800;DHT22;39708;53.210;6.948;2023-03-15T05:39:17;-2.70;99.90
53800;DHT22;39708;53.210;6.948;2023-03-15T05:41:42;-2.90;99.90
53800;DHT22;39708;53.210;6.948;2023-03-15T05:44:08;-3.00;99.90
53800;DHT22;39708;53.210;6.948;2023-03-15T05:46:34;-3.00;99.90
53800;DHT22;39708;53.210;6.948;2023-03-15T05:48:59;-2.90;99.90
53800;DHT22;39708;53.210;6.948;2023-03-15T05:51:25;-2.80;99.90
53800;DHT22;39708;53.210;6.948;2023-03-15T05:53:50;-2.00;99.90
53800;DHT22;39708;53.210;6.948;2023-03-15T05:56:16;-2.40;99.90
53800;DHT22;39708;53.210;6.948;2023-03-15T05:58:41;-2.30;99.90
53800;DHT22;39708;53.210;6.948;2023-03-15T06:01:07;-2.10;99.90
53800;DHT22;39708;53.210;6.948;2023-03-15T06:03:33;-2.00;99.90
53800;DHT22;39708;53.210;6.948;2023-03-15T06:05:59;-2.00;99.90
53800;DHT22;39708;53.210;6.948;2023-03-15T06:08:25;-1.90;99.90
53800;DHT22;39708;53.210;6.948;2023-03-15T06:10:51;-1.80;99.90
53800;DHT22;39708;53.210;6.948;2023-03-15T06:13:16;-1.70;99.90
53800;DHT22;39708;53.210;6.948;2023-03-15T06:15:42;-1.20;99.90
53800;DHT22;39708;53.210;6.948;2023-03-15T06:18:08;-0.90;99.90
53800;DHT22;39708;53.210;6.948;2023-03-15T06:20:34;-0.60;99.90
53800;DHT22;39708;53.210;6.948;2023-03-15T06:22:59;-0.40;99.90
53800;DHT22;39708;53.210;6.948;2023-03-15T06:25:25;-0.20;99.90
53800;DHT22;39708;53.210;6.948;2023-03-15T06:27:51;0.10;99.90
53800;DHT22;39708;53.210;6.948;2023-03-15T06:30:16;0.10;99.90
53800;DHT22;39708;53.210;6.948;2023-03-15T06:32:42;0.20;99.90
53800;DHT22;39708;53.210;6.948;2023-03-15T06:35:08;0.20;99.90
53800;DHT22;39708;53.210;6.948;2023-03-15T06:37:34;0.20;99.90
53800;DHT22;39708;53.210;6.948;2023-03-15T06:40:06;0.30;99.90
53800;DHT22;39708;53.210;6.948;2023-03-15T06:42:32;0.20;99.90
53800;DHT22;39708;53.210;6.948;2023-03-15T06:44:58;0.50;99.90
53800;DHT22;39708;53.210;6.948;2023-03-15T06:47:23;0.10;99.90
53800;DHT22;39708;53.210;6.948;2023-03-15T06:49:49;0.10;99.90
53800;DHT22;39708;53.210;6.948;2023-03-15T06:52:15;0.10;99.90
53800;DHT22;39708;53.210;6.948;2023-03-15T06:54:40;0.10;99.90
53800;DHT22;39708;53.210;6.948;2023-03-15T06:57:06;0.10;99.90
53800;DHT22;39708;53.210;6.948;2023-03-15T06:59:31;0.10;99.90
53800;DHT22;39708;53.210;6.948;2023-03-15T07:01:57;0.10;99.90
53800;DHT22;39708;53.210;6.948;2023-03-15T07:04:22;0.10;99.90
53800;DHT22;39708;53.210;6.948;2023-03-15T07:06:48;0.20;99.90
53800;DHT22;39708;53.210;6.948;2023-03-15T07:09:13;0.20;99.90
53800;DHT22;39708;53.210;6.948;2023-03-15T07:11:39;0.30;99.90
53800;DHT22;39708;53.210;6.948;2023-03-15T07:14:04;0.40;99.90
53800;DHT22;39708;53.210;6.948;2023-03-15T07:16:31;0.50;99.90
53800;DHT22;39708;53.210;6.948;2023-03-15T07:18:56;0.60;99.90
53800;DHT22;39708;53.210;6.948;2023-03-15T07:21:24;0.60;99.90
53800;DHT22;39708;53.210;6.948;2023-03-15T07:23:50;0.70;99.90
53800;DHT22;39708;53.210;6.948;2023-03-15T07:26:15;0.80;99.90
53800;DHT22;39708;53.210;6.948;2023-03-15T07:28:41;0.80;99.90
53800;DHT22;39708;53.210;6.948;2023-03-15T07:31:09;1.60;99.90
53800;DHT22;39708;53.210;6.948;2023-03-15T07:33:35;1.00;99.90
53800;DHT22;39708;53.210;6.948;2023-03-15T07:36:02;1.10;99.90
53800;DHT22;39708;53.210;6.948;2023-03-15T07:38:28;1.10;99.90
53800;DHT22;39708;53.210;6.948;2023-03-15T07:40:54;1.20;99.90
53800;DHT22;39708;53.210;6.948;2023-03-15T07:43:20;1.20;99.90
53800;DHT22;39708;53.210;6.948;2023-03-15T07:45:46;1.50;99.90
53800;DHT22;39708;53.210;6.948;2023-03-15T07:48:11;1.40;99.90
53800;DHT22;39708;53.210;6.948;2023-03-15T07:50:37;1.50;99.90
53800;DHT22;39708;53.210;6.948;2023-03-15T07:53:03;1.70;99.90
53800;DHT22;39708;53.210;6.948;2023-03-15T07:55:30;1.80;99.90
53800;DHT22;39708;53.210;6.948;2023-03-15T07:57:55;1.80;99.90
53800;DHT22;39708;53.210;6.948;2023-03-15T08:00:21;1.90;99.90
53800;DHT22;39708;53.210;6.948;2023-03-15T08:02:47;2.00;99.90
53800;DHT22;39708;53.210;6.948;2023-03-15T08:05:12;2.20;99.90
53800;DHT22;39708;53.210;6.948;2023-03-15T08:07:38;3.00;99.90
53800;DHT22;39708;53.210;6.948;2023-03-15T08:10:04;3.80;99.90
53800;DHT22;39708;53.210;6.948;2023-03-15T08:12:30;2.40;99.90
53800;DHT22;39708;53.210;6.948;2023-03-15T08:14:56;2.40;99.90
53800;DHT22;39708;53.210;6.948;2023-03-15T08:17:21;2.50;99.90
53800;DHT22;39708;53.210;6.948;2023-03-15T08:19:47;2.60;99.90
53800;DHT22;39708;53.210;6.948;2023-03-15T08:22:12;2.70;99.90
53800;DHT22;39708;53.210;6.948;2023-03-15T08:24:38;2.80;99.90
53800;DHT22;39708;53.210;6.948;2023-03-15T08:27:04;3.20;99.90
53800;DHT22;39708;53.210;6.948;2023-03-15T08:29:29;3.00;99.90
53800;DHT22;39708;53.210;6.948;2023-03-15T08:31:55;3.10;99.90
53800;DHT22;39708;53.210;6.948;2023-03-15T08:34:20;3.20;99.90
53800;DHT22;39708;53.210;6.948;2023-03-15T08:36:46;3.30;99.90
53800;DHT22;39708;53.210;6.948;2023-03-15T08:39:12;3.30;99.90
53800;DHT22;39708;53.210;6.948;2023-03-15T08:41:38;3.10;99.90
53800;DHT22;39708;53.210;6.948;2023-03-15T08:44:03;3.00;99.90
53800;DHT22;39708;53.210;6.948;2023-03-15T08:46:29;2.90;99.90
53800;DHT22;39708;53.210;6.948;2023-03-15T08:48:55;3.70;99.90
53800;DHT22;39708;53.210;6.948;2023-03-15T08:51:21;3.00;99.90
53800;DHT22;39708;53.210;6.948;2023-03-15T08:53:46;3.10;99.90
53800;DHT22;39708;53.210;6.948;2023-03-15T08:56:12;3.00;99.90
53800;DHT22;39708;53.210;6.948;2023-03-15T08:58:37;3.10;99.90
53800;DHT22;39708;53.210;6.948;2023-03-15T09:01:03;3.10;99.90
53800;DHT22;39708;53.210;6.948;2023-03-15T09:03:31;3.20;99.90
53800;DHT22;39708;53.210;6.948;2023-03-15T09:05:57;3.20;99.90
53800;DHT22;39708;53.210;6.948;2023-03-15T09:08:23;4.10;99.90
53800;DHT22;39708;53.210;6.948;2023-03-15T09:10:53;3.80;99.90
53800;DHT22;39708;53.210;6.948;2023-03-15T09:13:19;3.60;99.90
53800;DHT22;39708;53.210;6.948;2023-03-15T09:15:44;3.70;99.90
53800;DHT22;39708;53.210;6.948;2023-03-15T09:18:10;3.70;99.90
53800;DHT22;39708;53.210;6.948;2023-03-15T09:20:36;3.80;99.90
53800;DHT22;39708;53.210;6.948;2023-03-15T09:23:03;4.20;99.90
53800;DHT22;39708;53.210;6.948;2023-03-15T09:25:29;3.70;99.90
53800;DHT22;39708;53.210;6.948;2023-03-15T09:27:55;3.80;99.90
53800;DHT22;39708;53.210;6.948;2023-03-15T09:30:20;3.70;99.90
53800;DHT22;39708;53.210;6.948;2023-03-15T09:32:46;3.80;99.90
53800;DHT22;39708;53.210;6.948;2023-03-15T09:35:13;3.80;99.90
53800;DHT22;39708;53.210;6.948;2023-03-15T09:37:38;3.80;99.90
53800;DHT22;39708;53.210;6.948;2023-03-15T09:40:04;3.80;99.90
53800;DHT22;39708;53.210;6.948;2023-03-15T09:45:06;3.90;99.90
53800;DHT22;39708;53.210;6.948;2023-03-15T09:52:49;4.00;99.90
53800;DHT22;39708;53.210;6.948;2023-03-15T09:55:20;4.50;99.90
53800;DHT22;39708;53.210;6.948;2023-03-15T09:57:51;4.80;99.90
53800;DHT22;39708;53.210;6.948;2023-03-15T10:00:37;5.00;99.90
53800;DHT22;39708;53.210;6.948;2023-03-15T10:03:04;5.20;99.90
53800;DHT22;39708;53.210;6.948;2023-03-15T10:05:36;5.40;99.90
53800;DHT22;39708;53.210;6.948;2023-03-15T10:08:07;5.60;99.90
53800;DHT22;39708;53.210;6.948;2023-03-15T10:10:34;6.10;99.90
53800;DHT22;39708;53.210;6.948;2023-03-15T10:15:58;7.20;99.90
53800;DHT22;39708;53.210;6.948;2023-03-15T10:20:56;8.00;99.90
53800;DHT22;39708;53.210;6.948;2023-03-15T10:23:38;8.10;99.90
53800;DHT22;39708;53.210;6.948;2023-03-15T10:26:09;8.10;99.90
53800;DHT22;39708;53.210;6.948;2023-03-15T10:28:36;7.60;99.90
53800;DHT22;39708;53.210;6.948;2023-03-15T10:31:13;7.20;99.90
53800;DHT22;39708;53.210;6.948;2023-03-15T10:33:39;6.80;99.90
53800;DHT22;39708;53.210;6.948;2023-03-15T10:36:12;6.70;99.90
53800;DHT22;39708;53.210;6.948;2023-03-15T10:38:38;7.10;99.90
53800;DHT22;39708;53.210;6.948;2023-03-15T10:41:04;7.00;99.90
53800;DHT22;39708;53.210;6.948;2023-03-15T10:43:31;6.90;99.90
53800;DHT22;39708;53.210;6.948;2023-03-15T10:48:29;6.90;99.90
53800;DHT22;39708;53.210;6.948;2023-03-15T10:50:55;6.70;99.90
53800;DHT22;39708;53.210;6.948;2023-03-15T10:53:21;6.70;99.90
53800;DHT22;39708;53.210;6.948;2023-03-15T10:55:56;6.70;99.90
53800;DHT22;39708;53.210;6.948;2023-03-15T10:58:24;6.90;99.90
53800;DHT22;39708;53.210;6.948;2023-03-15T11:00:54;7.30;99.90
53800;DHT22;39708;53.210;6.948;2023-03-15T11:03:23;7.10;99.90
53800;DHT22;39708;53.210;6.948;2023-03-15T11:05:51;6.90;99.90
53800;DHT22;39708;53.210;6.948;2023-03-15T11:08:21;7.30;99.90
53800;DHT22;39708;53.210;6.948;2023-03-15T11:10:53;7.90;99.90
53800;DHT22;39708;53.210;6.948;2023-03-15T11:13:21;8.20;99.90
53800;DHT22;39708;53.210;6.948;2023-03-15T11:18:23;8.00;99.90
53800;DHT22;39708;53.210;6.948;2023-03-15T11:20:49;7.70;99.90
53800;DHT22;39708;53.210;6.948;2023-03-15T11:23:26;7.70;99.90
53800;DHT22;39708;53.210;6.948;2023-03-15T11:25:52;7.70;99.90
53800;DHT22;39708;53.210;6.948;2023-03-15T11:28:19;7.80;99.90
53800;DHT22;39708;53.210;6.948;2023-03-15T11:30:46;7.80;99.90
53800;DHT22;39708;53.210;6.948;2023-03-15T11:33:36;7.80;99.90
53800;DHT22;39708;53.210;6.948;2023-03-15T11:36:03;7.60;99.90
53800;DHT22;39708;53.210;6.948;2023-03-15T11:38:36;7.60;99.90
53800;DHT22;39708;53.210;6.948;2023-03-15T11:41:08;7.80;99.90
53800;DHT22;39708;53.210;6.948;2023-03-15T11:49:03;7.80;99.90
53800;DHT22;39708;53.210;6.948;2023-03-15T11:51:33;7.80;99.90
53800;DHT22;39708;53.210;6.948;2023-03-15T11:54:11;7.90;99.90
53800;DHT22;39708;53.210;6.948;2023-03-15T11:59:04;7.90;99.90
53800;DHT22;39708;53.210;6.948;2023-03-15T12:01:30;7.80;99.90
53800;DHT22;39708;53.210;6.948;2023-03-15T12:06:42;7.70;99.90
53800;DHT22;39708;53.210;6.948;2023-03-15T12:22:23;7.70;99.90
53800;DHT22;39708;53.210;6.948;2023-03-15T12:24:50;7.70;99.90
53800;DHT22;39708;53.210;6.948;2023-03-15T12:27:17;8.50;99.90
53800;DHT22;39708;53.210;6.948;2023-03-15T12:29:44;7.90;99.90
53800;DHT22;39708;53.210;6.948;2023-03-15T12:32:16;8.00;99.90
53800;DHT22;39708;53.210;6.948;2023-03-15T12:34:49;8.00;99.90
53800;DHT22;39708;53.210;6.948;2023-03-15T12:39:43;8.30;99.90
53800;DHT22;39708;53.210;6.948;2023-03-15T12:44:53;8.20;99.90
53800;DHT22;39708;53.210;6.948;2023-03-15T12:47:18;8.20;99.10
53800;DHT22;39708;53.210;6.948;2023-03-15T12:49:44;8.30;99.90
53800;DHT22;39708;53.210;6.948;2023-03-15T12:57:04;8.60;99.90
53800;DHT22;39708;53.210;6.948;2023-03-15T13:01:56;8.80;99.90
53800;DHT22;39708;53.210;6.948;2023-03-15T13:04:22;8.80;99.60
53800;DHT22;39708;53.210;6.948;2023-03-15T13:09:28;8.80;99.30
53800;DHT22;39708;53.210;6.948;2023-03-15T13:12:00;8.90;99.90
53800;DHT22;39708;53.210;6.948;2023-03-15T13:19:27;9.10;98.70
53800;DHT22;39708;53.210;6.948;2023-03-15T13:21:57;9.30;97.70
53800;DHT22;39708;53.210;6.948;2023-03-15T13:27:12;9.30;95.80
53800;DHT22;39708;53.210;6.948;2023-03-15T13:29:39;9.40;97.20
53800;DHT22;39708;53.210;6.948;2023-03-15T13:34:34;9.40;96.70
53800;DHT22;39708;53.210;6.948;2023-03-15T13:36:59;9.20;96.10
53800;DHT22;39708;53.210;6.948;2023-03-15T13:39:27;9.20;96.90
53800;DHT22;39708;53.210;6.948;2023-03-15T13:41:57;9.40;97.30
53800;DHT22;39708;53.210;6.948;2023-03-15T13:44:23;9.50;97.00
53800;DHT22;39708;53.210;6.948;2023-03-15T13:46:50;9.60;96.60
53800;DHT22;39708;53.210;6.948;2023-03-15T13:49:16;9.60;95.60
53800;DHT22;39708;53.210;6.948;2023-03-15T13:51:42;9.60;95.60
53800;DHT22;39708;53.210;6.948;2023-03-15T13:54:14;9.70;96.80
53800;DHT22;39708;53.210;6.948;2023-03-15T13:57:00;9.70;97.20
53800;DHT22;39708;53.210;6.948;2023-03-15T13:59:30;9.80;97.60
53800;DHT22;39708;53.210;6.948;2023-03-15T14:01:56;9.70;96.30
53800;DHT22;39708;53.210;6.948;2023-03-15T14:04:22;9.50;96.70
53800;DHT22;39708;53.210;6.948;2023-03-15T14:06:49;9.40;96.30
53800;DHT22;39708;53.210;6.948;2023-03-15T14:09:20;9.20;95.20
53800;DHT22;39708;53.210;6.948;2023-03-15T14:11:58;9.10;94.70
53800;DHT22;39708;53.210;6.948;2023-03-15T14:14:26;9.20;97.00
53800;DHT22;39708;53.210;6.948;2023-03-15T14:16:52;8.70;96.60
53800;DHT22;39708;53.210;6.948;2023-03-15T14:21:45;8.40;97.00
53800;DHT22;39708;53.210;6.948;2023-03-15T14:24:19;8.20;97.30
53800;DHT22;39708;53.210;6.948;2023-03-15T14:26:50;8.00;98.70
53800;DHT22;39708;53.210;6.948;2023-03-15T14:29:17;7.90;99.30
53800;DHT22;39708;53.210;6.948;2023-03-15T14:31:46;8.30;98.80
53800;DHT22;39708;53.210;6.948;2023-03-15T14:37:24;8.60;98.70
53800;DHT22;39708;53.210;6.948;2023-03-15T14:39:51;8.60;98.30
53800;DHT22;39708;53.210;6.948;2023-03-15T14:42:17;8.70;98.50
53800;DHT22;39708;53.210;6.948;2023-03-15T14:44:42;8.80;99.90
53800;DHT22;39708;53.210;6.948;2023-03-15T14:47:11;8.80;98.60
53800;DHT22;39708;53.210;6.948;2023-03-15T14:49:38;8.80;98.00
53800;DHT22;39708;53.210;6.948;2023-03-15T14:52:04;8.80;97.90
53800;DHT22;39708;53.210;6.948;2023-03-15T14:54:30;8.70;98.60
53800;DHT22;39708;53.210;6.948;2023-03-15T14:56:56;8.60;98.30
53800;DHT22;39708;53.210;6.948;2023-03-15T14:59:22;8.80;98.60
53800;DHT22;39708;53.210;6.948;2023-03-15T15:01:48;8.70;98.50
53800;DHT22;39708;53.210;6.948;2023-03-15T15:04:14;8.80;99.20
53800;DHT22;39708;53.210;6.948;2023-03-15T15:06:40;8.90;99.60
53800;DHT22;39708;53.210;6.948;2023-03-15T15:09:15;8.70;99.60
53800;DHT22;39708;53.210;6.948;2023-03-15T15:11:41;8.80;99.60
53800;DHT22;39708;53.210;6.948;2023-03-15T15:14:10;8.60;98.50
53800;DHT22;39708;53.210;6.948;2023-03-15T15:16:37;8.90;95.70
53800;DHT22;39708;53.210;6.948;2023-03-15T15:19:03;8.50;94.60
53800;DHT22;39708;53.210;6.948;2023-03-15T15:21:29;8.40;95.50
53800;DHT22;39708;53.210;6.948;2023-03-15T15:23:55;8.50;97.80
53800;DHT22;39708;53.210;6.948;2023-03-15T15:26:22;8.30;98.10
53800;DHT22;39708;53.210;6.948;2023-03-15T15:28:50;8.30;97.80
53800;DHT22;39708;53.210;6.948;2023-03-15T15:31:20;8.20;97.70
53800;DHT22;39708;53.210;6.948;2023-03-15T15:33:47;8.20;98.60
53800;DHT22;39708;53.210;6.948;2023-03-15T15:36:15;8.30;99.10
53800;DHT22;39708;53.210;6.948;2023-03-15T15:38:41;8.00;99.40
53800;DHT22;39708;53.210;6.948;2023-03-15T15:41:39;8.00;99.80
53800;DHT22;39708;53.210;6.948;2023-03-15T15:43:58;8.00;99.90
53800;DHT22;39708;53.210;6.948;2023-03-15T15:46:24;7.90;99.90
53800;DHT22;39708;53.210;6.948;2023-03-15T15:48:50;7.90;99.90
53800;DHT22;39708;53.210;6.948;2023-03-15T15:51:17;7.80;98.70
53800;DHT22;39708;53.210;6.948;2023-03-15T15:53:43;7.80;99.90
53800;DHT22;39708;53.210;6.948;2023-03-15T15:56:09;7.80;99.90
53800;DHT22;39708;53.210;6.948;2023-03-15T15:58:39;7.80;99.90
53800;DHT22;39708;53.210;6.948;2023-03-15T16:01:05;7.60;99.90
53800;DHT22;39708;53.210;6.948;2023-03-15T16:03:30;7.50;99.90
53800;DHT22;39708;53.210;6.948;2023-03-15T16:05:56;7.40;99.90
53800;DHT22;39708;53.210;6.948;2023-03-15T16:08:22;7.40;99.90
53800;DHT22;39708;53.210;6.948;2023-03-15T16:10:49;7.60;99.90
53800;DHT22;39708;53.210;6.948;2023-03-15T16:13:14;7.50;99.90
53800;DHT22;39708;53.210;6.948;2023-03-15T16:15:40;7.40;99.90
53800;DHT22;39708;53.210;6.948;2023-03-15T16:18:09;7.40;99.90
53800;DHT22;39708;53.210;6.948;2023-03-15T16:20:35;7.30;99.90
53800;DHT22;39708;53.210;6.948;2023-03-15T16:23:00;7.20;99.90
53800;DHT22;39708;53.210;6.948;2023-03-15T16:25:27;7.20;99.90
53800;DHT22;39708;53.210;6.948;2023-03-15T16:27:53;7.10;99.90
53800;DHT22;39708;53.210;6.948;2023-03-15T16:30:23;7.00;99.90
53800;DHT22;39708;53.210;6.948;2023-03-15T16:32:50;7.00;99.90
53800;DHT22;39708;53.210;6.948;2023-03-15T16:35:20;6.90;99.90
53800;DHT22;39708;53.210;6.948;2023-03-15T16:37:46;6.90;99.90
53800;DHT22;39708;53.210;6.948;2023-03-15T16:40:13;6.80;99.90
53800;DHT22;39708;53.210;6.948;2023-03-15T16:42:40;6.60;99.90
53800;DHT22;39708;53.210;6.948;2023-03-15T16:45:10;6.70;99.90
53800;DHT22;39708;53.210;6.948;2023-03-15T16:47:36;6.50;99.90
53800;DHT22;39708;53.210;6.948;2023-03-15T16:50:02;6.60;99.90
53800;DHT22;39708;53.210;6.948;2023-03-15T16:52:28;6.30;99.90
53800;DHT22;39708;53.210;6.948;2023-03-15T16:54:55;6.20;99.90
53800;DHT22;39708;53.210;6.948;2023-03-15T16:57:21;6.30;99.90
53800;DHT22;39708;53.210;6.948;2023-03-15T16:59:47;6.10;99.90
53800;DHT22;39708;53.210;6.948;2023-03-15T17:02:30;6.00;99.90